Airfield :
LOGIN :

Register | Disclaimer

   EN    FR    IT 

 










Legend :    VFR   Marginal VFR   IFR   Intensive IFR   Very Intensive IFR
Visi :
Ceiling :
>= 8 km
>= 3000ft
5 to 8 km
1000 to 3000 ft
1500m to 5 km
500 to 1000 ft
800 to 1500m
200 to 500 ft
< 800m
< 200 ft
Symbols :   Thunderstorms  Fog  Heavy snow  Heavy precipitations  Wind > 20 kt
SIGMETs :     Misc.  Thunderstorms  Icing  Turbulence  Mountain Waves  Volcanic Ashes







- Airport Elevation : 48 ft
- IATA code : PSR


LIBP - Abruzzo Pescara

CURRENT METAR :
  • 151450Z 22008KT 9999 -RA FEW035 BKN065 15/09 Q0999

EXPIRED METARs :
  • 151350Z 22013KT 9999 FEW040 BKN090 16/09 Q0999
  • 151250Z 23016KT 9999 SCT070 18/07 Q0999

TAF TAF LIBP
Valid from the 15 at 12:00 until the 16 at 12:00 UTC


151100Z 1512/1612 22016KT 9999 SCT030
BECMG 1516/1518 34008KT
TEMPO 1515/1603 4000 SHRA
No reported NOTAMs for that airfield.
1 SIGMET reported for the Brindisi FIR (LIBB) :
 
Severe mountain waves
LIBB SIGMET 5 VALID 151300/151700 LIIB
LIBB BRINDISI FIR SEV MTW FCST WI N4240 E01319 - N4258 E01521 - N4225 E01607 - N4136 E01749 - N4017 E01542 - N4109 E01511 - N4127 E01423 - N4240 E01319 FL020/100 STNR NC=



MET'MAP, your aeronautical weather chart ! - Copyright ORBIFLY December 2007 - Disclaimer

ORBIFLY MET'MAP TEAM :

Programming & Development : Alexandra Zaïnal
Concept & Development : Baudouin d'Aumeries
Co-Development & Prog : Marc-Olivier Méhu
Technical & hardware support : Manuel Goepfert

Contact : metmap@orbifly.com




SOURCES & CREDITS :

   NOAA